Time;durP1;ratioP1;P1;durP2;ratioP2;P2;SDS_P1;SDS_P2;PMS_P1;PMS_P2;Temp;Humidity;BMP_temperature;BMP_pressure;BME280_temperature;BME280_humidity;BME280_pressure;Samples;Min_cycle;Max_cycle;Signal;HPM_P1;HPM_P2
2022/06/04 00:00:56;;;;;;;29.50;19.25;;;20.20;99.90;;;;;;5054449;28;20029;-58
2022/06/04 00:03:22;;;;;;;33.13;20.40;;;20.10;99.90;;;;;;5054260;28;20453;-59
2022/06/04 00:05:53;;;;;;;31.08;18.85;;;20.00;99.90;;;;;;5054520;28;20041;-59
2022/06/04 00:08:19;;;;;;;28.52;17.17;;;20.00;99.90;;;;;;5054514;28;20056;-59
2022/06/04 00:16:20;;;;;;;20.20;15.77;;;19.80;99.90;;;;;;5054309;28;20096;-59
2022/06/04 00:18:46;;;;;;;20.45;14.32;;;19.70;99.90;;;;;;5054012;28;20067;-59
2022/06/04 00:21:13;;;;;;;20.00;14.23;;;19.70;99.90;;;;;;5054405;28;20040;-58
2022/06/04 00:23:40;;;;;;;18.85;13.15;;;19.70;99.90;;;;;;5054291;28;20033;-59
2022/06/04 00:26:08;;;;;;;18.35;13.10;;;19.70;99.90;;;;;;5054314;28;20028;-59
2022/06/04 00:28:35;;;;;;;17.00;12.82;;;19.70;99.90;;;;;;5054497;28;20033;-59
2022/06/04 00:31:02;;;;;;;17.77;12.73;;;19.60;99.90;;;;;;5054147;28;20118;-59
2022/06/04 00:33:27;;;;;;;19.75;13.43;;;19.60;99.90;;;;;;5054218;28;20025;-59
2022/06/04 00:35:56;;;;;;;18.58;13.35;;;19.60;99.90;;;;;;5054309;28;20040;-59
2022/06/04 00:38:24;;;;;;;18.83;13.18;;;19.60;99.90;;;;;;5054401;28;20041;-58
2022/06/04 00:41:09;;;;;;;22.25;15.10;;;19.60;99.90;;;;;;5054008;28;20087;-59
2022/06/04 00:44:10;;;;;;;20.27;14.77;;;19.60;99.90;;;;;;5054169;28;20056;-59
2022/06/04 00:46:42;;;;;;;19.95;13.98;;;19.60;99.90;;;;;;4972904;28;20648;-58
2022/06/04 00:49:09;;;;;;;20.98;13.85;;;19.70;99.90;;;;;;5040493;28;20493;-58
2022/06/04 00:51:36;;;;;;;19.30;13.52;;;19.60;99.90;;;;;;5054101;28;20025;-58
2022/06/04 00:54:04;;;;;;;23.08;14.77;;;19.70;99.90;;;;;;5053790;28;20028;-58
2022/06/04 00:56:41;;;;;;;23.27;15.05;;;19.60;99.90;;;;;;5054056;28;20037;-58
2022/06/04 00:59:28;;;;;;;14.38;11.52;;;19.70;99.90;;;;;;5054185;28;20044;-58
2022/06/04 01:02:18;;;;;;;20.10;14.25;;;19.60;99.90;;;;;;5053715;28;20036;-58
2022/06/04 01:04:52;;;;;;;18.83;12.73;;;19.50;99.90;;;;;;5053910;28;20083;-58
2022/06/04 01:07:36;;;;;;;16.15;13.20;;;19.50;99.90;;;;;;5052956;28;20293;-58
2022/06/04 01:10:09;;;;;;;19.08;13.32;;;19.50;99.90;;;;;;5054835;28;20037;-58
2022/06/04 01:13:07;;;;;;;26.17;12.77;;;19.50;99.90;;;;;;5057640;28;20028;-58
2022/06/04 01:15:57;;;;;;;22.00;13.75;;;19.50;99.90;;;;;;5049776;28;20098;-58
2022/06/04 01:18:35;;;;;;;23.40;13.35;;;19.40;99.90;;;;;;5057423;28;20040;-58
2022/06/04 01:21:40;;;;;;;17.48;13.07;;;19.40;99.90;;;;;;5057433;28;20036;-58
2022/06/04 01:24:43;;;;;;;18.05;12.88;;;19.40;99.90;;;;;;5056816;28;20037;-58
2022/06/04 01:27:22;;;;;;;18.90;12.90;;;19.30;99.90;;;;;;5057816;28;20055;-58
2022/06/04 01:30:15;;;;;;;19.73;13.23;;;19.30;99.90;;;;;;5057084;28;20041;-58
2022/06/04 01:33:05;;;;;;;19.33;13.35;;;19.30;99.90;;;;;;5057345;28;20033;-58
2022/06/04 01:36:02;;;;;;;21.63;13.75;;;19.20;99.90;;;;;;5057127;28;20052;-58
2022/06/04 01:38:48;;;;;;;18.10;14.18;;;19.20;99.90;;;;;;5050668;28;20045;-59
2022/06/04 01:41:34;;;;;;;24.42;16.02;;;19.20;99.90;;;;;;5056983;28;20466;-59
2022/06/04 01:44:06;;;;;;;22.65;16.23;;;19.10;99.90;;;;;;5056805;28;20459;-59
2022/06/04 01:46:39;;;;;;;22.98;16.08;;;19.10;99.90;;;;;;5057059;28;20029;-58
2022/06/04 01:49:41;;;;;;;20.52;15.32;;;19.10;99.90;;;;;;5056890;28;20033;-58
2022/06/04 01:52:28;;;;;;;24.45;17.05;;;19.10;99.90;;;;;;5056951;28;20029;-59
2022/06/04 01:55:26;;;;;;;21.50;16.30;;;19.00;99.90;;;;;;5056761;28;20487;-59
2022/06/04 01:57:58;;;;;;;18.23;15.18;;;19.10;99.90;;;;;;5056808;28;20033;-59
2022/06/04 02:00:41;;;;;;;20.58;15.15;;;19.10;99.90;;;;;;5056830;28;20029;-59
2022/06/04 02:03:20;;;;;;;18.35;14.90;;;19.00;99.90;;;;;;5056664;28;20072;-59
2022/06/04 02:05:58;;;;;;;20.70;15.75;;;19.00;99.90;;;;;;5056549;28;20063;-59
2022/06/04 02:08:32;;;;;;;19.05;15.68;;;18.90;99.90;;;;;;5056580;28;20670;-59
2022/06/04 02:11:01;;;;;;;21.00;16.33;;;19.00;99.90;;;;;;5056555;28;20098;-59
2022/06/04 02:13:27;;;;;;;20.63;15.00;;;19.00;99.90;;;;;;5056331;28;20097;-59
2022/06/04 02:16:10;;;;;;;23.25;14.27;;;19.00;99.90;;;;;;5056633;28;20021;-59
2022/06/04 02:18:37;;;;;;;19.38;13.93;;;18.90;99.90;;;;;;5056171;28;20029;-59
2022/06/04 02:21:04;;;;;;;21.27;13.82;;;19.00;99.90;;;;;;5055932;28;20048;-59
2022/06/04 02:23:30;;;;;;;20.02;15.55;;;19.00;99.90;;;;;;5056475;28;20033;-59
2022/06/04 02:25:59;;;;;;;21.30;15.10;;;19.00;99.90;;;;;;5056100;28;20053;-59
2022/06/04 02:28:26;;;;;;;18.60;15.27;;;19.00;99.90;;;;;;5056463;28;20025;-59
2022/06/04 02:31:25;;;;;;;23.02;15.90;;;19.00;99.90;;;;;;5056251;28;20048;-59
2022/06/04 02:34:03;;;;;;;22.08;16.95;;;19.00;99.90;;;;;;5056008;28;20399;-59
2022/06/04 02:36:49;;;;;;;21.38;15.77;;;19.00;99.90;;;;;;5056102;28;20041;-59
2022/06/04 02:39:43;;;;;;;20.88;15.30;;;19.00;99.90;;;;;;5055930;28;20033;-59
2022/06/04 02:42:21;;;;;;;20.65;15.20;;;19.00;99.90;;;;;;5055922;28;20078;-59
2022/06/04 02:45:07;;;;;;;23.70;15.25;;;19.00;99.90;;;;;;5055910;28;20055;-59
2022/06/04 02:47:42;;;;;;;18.38;15.02;;;18.90;99.90;;;;;;5055748;28;20025;-59
2022/06/04 02:50:29;;;;;;;18.42;14.57;;;18.90;99.90;;;;;;5055743;28;20029;-59
2022/06/04 02:52:58;;;;;;;22.48;16.13;;;18.80;99.90;;;;;;5055813;28;20029;-59
2022/06/04 02:55:28;;;;;;;22.42;16.38;;;18.80;99.90;;;;;;5055623;28;20501;-59
2022/06/04 02:58:01;;;;;;;21.95;15.60;;;18.90;99.90;;;;;;5055887;28;20032;-59
2022/06/04 03:00:29;;;;;;;20.27;14.60;;;18.80;99.90;;;;;;5055549;28;20108;-59
2022/06/04 03:02:55;;;;;;;20.98;14.13;;;18.80;99.90;;;;;;5055613;28;20028;-59
2022/06/04 03:05:24;;;;;;;17.88;13.55;;;18.80;99.90;;;;;;5055630;28;20040;-59
2022/06/04 03:07:54;;;;;;;19.42;14.20;;;18.70;99.90;;;;;;5055441;28;20108;-59
2022/06/04 03:10:24;;;;;;;20.63;14.30;;;18.70;99.90;;;;;;5055592;28;20052;-59
2022/06/04 03:12:51;;;;;;;21.35;14.50;;;18.70;99.90;;;;;;5055281;28;20040;-59
2022/06/04 03:15:17;;;;;;;17.48;13.55;;;18.60;99.90;;;;;;5055347;28;20036;-59
2022/06/04 03:17:45;;;;;;;18.73;14.38;;;18.60;99.90;;;;;;5055314;28;20382;-59
2022/06/04 03:20:16;;;;;;;18.85;13.50;;;18.60;99.90;;;;;;5055334;28;20398;-59
2022/06/04 03:22:42;;;;;;;16.58;12.82;;;18.60;99.90;;;;;;5055069;28;20029;-59
2022/06/04 03:25:09;;;;;;;17.55;11.65;;;18.70;99.90;;;;;;5055341;28;20040;-59
2022/06/04 03:27:35;;;;;;;23.10;11.60;;;18.70;99.90;;;;;;5055065;28;20032;-59
2022/06/04 03:30:01;;;;;;;13.13;11.73;;;18.70;99.90;;;;;;5055062;28;20024;-59
2022/06/04 03:32:27;;;;;;;16.25;11.18;;;18.60;99.90;;;;;;5054333;28;20036;-59
2022/06/04 03:34:53;;;;;;;13.43;11.52;;;18.50;99.90;;;;;;5055101;28;20060;-59
2022/06/04 03:37:19;;;;;;;20.33;13.20;;;18.50;99.90;;;;;;5054820;28;20033;-59
2022/06/04 03:39:45;;;;;;;18.90;13.35;;;18.40;99.90;;;;;;5055045;28;20033;-59
2022/06/04 03:42:10;;;;;;;15.68;12.38;;;18.40;99.90;;;;;;5054762;28;20025;-59
2022/06/04 03:44:37;;;;;;;22.85;13.63;;;18.50;99.90;;;;;;5054549;28;20088;-59
2022/06/04 03:47:04;;;;;;;17.90;12.93;;;18.50;99.90;;;;;;5054905;28;20425;-59
2022/06/04 03:49:31;;;;;;;21.65;13.00;;;18.50;99.90;;;;;;5054570;28;20064;-59
2022/06/04 03:51:57;;;;;;;24.13;14.63;;;18.50;99.90;;;;;;5054602;28;20104;-59
2022/06/04 03:54:52;;;;;;;16.38;13.48;;;18.60;99.90;;;;;;5054544;28;20450;-59
2022/06/04 03:59:54;;;;;;;20.52;13.50;;;18.70;99.90;;;;;;5054480;28;20032;-59
2022/06/04 04:02:20;;;;;;;19.70;13.77;;;18.70;99.90;;;;;;5054512;28;20689;-59
2022/06/04 04:04:46;;;;;;;21.77;13.70;;;18.70;99.90;;;;;;5055003;28;20126;-59
2022/06/04 04:07:14;;;;;;;19.25;13.80;;;18.80;99.90;;;;;;5054420;28;20100;-59
2022/06/04 04:09:40;;;;;;;21.83;14.43;;;18.80;99.90;;;;;;5054574;28;20025;-59
2022/06/04 04:12:07;;;;;;;19.83;13.80;;;18.90;99.90;;;;;;5054375;28;20086;-59
2022/06/04 04:14:33;;;;;;;23.17;16.30;;;18.90;99.90;;;;;;5054275;28;20060;-59
2022/06/04 04:16:58;;;;;;;19.63;15.00;;;18.90;99.90;;;;;;5054460;28;20427;-59
2022/06/04 04:19:28;;;;;;;26.92;18.45;;;19.00;99.90;;;;;;5054469;28;20494;-59
2022/06/04 04:21:54;;;;;;;26.55;19.88;;;19.00;99.90;;;;;;5054235;28;20482;-59
2022/06/04 04:24:20;;;;;;;31.10;23.58;;;19.00;99.90;;;;;;5054361;28;20356;-59
2022/06/04 04:26:46;;;;;;;33.17;25.15;;;19.00;99.90;;;;;;5054072;28;20025;-59
2022/06/04 04:29:12;;;;;;;36.88;26.25;;;19.10;99.90;;;;;;5054252;28;20120;-59
2022/06/04 04:31:38;;;;;;;34.13;25.83;;;19.10;99.90;;;;;;5054324;28;20064;-59
2022/06/04 04:34:05;;;;;;;34.10;25.90;;;19.10;99.90;;;;;;5054143;28;20120;-59
2022/06/04 04:36:31;;;;;;;31.48;24.27;;;19.10;99.90;;;;;;5054181;28;20497;-59
2022/06/04 04:38:58;;;;;;;32.28;25.00;;;19.20;99.90;;;;;;5054344;28;20043;-59
2022/06/04 04:41:24;;;;;;;29.52;22.48;;;19.30;99.90;;;;;;5053865;28;20064;-59
2022/06/04 04:43:51;;;;;;;26.45;21.23;;;19.40;99.90;;;;;;5054957;28;20044;-59
2022/06/04 04:46:19;;;;;;;27.77;21.50;;;19.50;99.90;;;;;;5058306;28;20029;-59
2022/06/04 04:48:47;;;;;;;27.00;20.75;;;19.50;99.90;;;;;;5057996;28;20021;-59
2022/06/04 04:51:21;;;;;;;24.35;19.48;;;19.60;99.90;;;;;;5058241;28;20025;-59
2022/06/04 04:53:48;;;;;;;26.15;19.23;;;19.70;99.90;;;;;;5057930;28;20384;-59
2022/06/04 04:56:15;;;;;;;27.05;20.27;;;19.80;99.90;;;;;;5057928;28;20033;-59
2022/06/04 04:58:41;;;;;;;25.95;19.55;;;19.90;99.90;;;;;;5058474;28;20037;-59
2022/06/04 05:01:19;;;;;;;25.30;18.67;;;20.00;99.90;;;;;;5057939;28;20039;-59
2022/06/04 05:03:45;;;;;;;25.98;20.95;;;20.10;99.90;;;;;;5057929;28;20036;-59
2022/06/04 05:06:13;;;;;;;26.77;19.23;;;20.20;99.90;;;;;;5057799;28;20033;-59
2022/06/04 05:08:39;;;;;;;28.88;19.05;;;20.30;99.90;;;;;;5057749;28;20029;-59
2022/06/04 05:11:10;;;;;;;25.85;18.60;;;20.30;99.90;;;;;;5057714;28;20040;-59
2022/06/04 05:13:37;;;;;;;23.17;17.98;;;20.40;99.90;;;;;;5057605;28;20083;-59
2022/06/04 05:16:03;;;;;;;25.45;18.75;;;20.50;99.90;;;;;;5057592;28;20364;-59
2022/06/04 05:18:29;;;;;;;22.38;17.83;;;20.60;99.90;;;;;;5057617;28;20028;-59
2022/06/04 05:20:55;;;;;;;22.05;16.48;;;20.60;99.90;;;;;;5057453;28;20100;-59
2022/06/04 05:23:21;;;;;;;25.48;17.80;;;20.70;99.90;;;;;;5057401;28;20040;-59
2022/06/04 05:25:47;;;;;;;25.88;18.83;;;20.80;99.90;;;;;;5057405;28;20028;-59
2022/06/04 05:28:14;;;;;;;27.65;17.88;;;20.90;99.90;;;;;;5057744;28;20029;-59
2022/06/04 05:30:40;;;;;;;27.92;17.98;;;21.00;99.90;;;;;;5057026;28;20037;-59
2022/06/04 05:33:08;;;;;;;24.98;16.20;;;21.00;99.90;;;;;;5057345;28;20033;-59
2022/06/04 05:35:34;;;;;;;25.17;17.75;;;21.00;99.90;;;;;;5057190;28;20025;-59
2022/06/04 05:38:00;;;;;;;27.98;16.55;;;21.00;99.90;;;;;;5057126;28;20035;-59
2022/06/04 05:40:26;;;;;;;27.73;18.00;;;21.10;99.90;;;;;;5057310;28;20108;-59
2022/06/04 05:42:52;;;;;;;24.38;17.45;;;21.20;99.90;;;;;;5057390;28;20037;-59
2022/06/04 05:45:17;;;;;;;24.02;16.45;;;21.30;99.90;;;;;;5056735;28;20057;-59
2022/06/04 05:47:43;;;;;;;27.40;15.93;;;21.40;99.90;;;;;;5057085;28;20037;-59
2022/06/04 05:50:10;;;;;;;25.10;14.45;;;21.50;99.90;;;;;;5056981;28;20020;-59
2022/06/04 05:52:35;;;;;;;20.80;14.52;;;21.50;99.90;;;;;;5056809;28;20052;-59
2022/06/04 05:55:01;;;;;;;27.48;17.27;;;21.50;99.90;;;;;;5056674;28;20037;-59
2022/06/04 05:57:27;;;;;;;21.70;13.52;;;21.70;99.90;;;;;;5056475;28;20041;-59
2022/06/04 05:59:53;;;;;;;21.55;14.02;;;21.70;99.90;;;;;;5056572;28;20025;-59
2022/06/04 06:02:19;;;;;;;22.80;13.27;;;21.80;99.90;;;;;;5056683;28;20028;-59
2022/06/04 06:04:45;;;;;;;28.38;13.75;;;21.80;99.90;;;;;;5056621;28;20131;-59
2022/06/04 06:07:10;;;;;;;23.25;14.20;;;22.00;99.90;;;;;;5056486;28;20040;-59
2022/06/04 06:09:36;;;;;;;23.05;13.68;;;22.10;99.90;;;;;;5056744;28;20386;-59
2022/06/04 06:12:03;;;;;;;17.75;11.77;;;22.30;99.90;;;;;;5056510;28;20053;-59
2022/06/04 06:14:29;;;;;;;20.60;12.68;;;22.40;99.90;;;;;;5056208;28;20025;-59
2022/06/04 06:16:56;;;;;;;14.63;9.77;;;22.50;99.90;;;;;;5056569;28;20033;-59
2022/06/04 06:19:22;;;;;;;20.30;10.93;;;22.50;99.90;;;;;;5056367;28;20028;-59
2022/06/04 06:21:49;;;;;;;23.13;11.63;;;22.60;99.90;;;;;;5056156;28;20029;-59
2022/06/04 06:24:20;;;;;;;18.58;10.27;;;22.70;99.90;;;;;;5056547;28;20021;-59
2022/06/04 06:26:52;;;;;;;18.73;10.57;;;22.80;99.90;;;;;;5055927;28;20033;-59
2022/06/04 06:29:19;;;;;;;17.60;10.30;;;23.10;99.90;;;;;;5056102;28;20410;-59
2022/06/04 06:31:45;;;;;;;17.20;9.65;;;23.20;99.90;;;;;;5056083;28;20064;-59
2022/06/04 06:34:11;;;;;;;28.80;10.57;;;23.40;99.90;;;;;;5056125;28;20086;-59
2022/06/04 06:36:38;;;;;;;16.45;9.88;;;23.50;99.90;;;;;;5055830;28;20394;-59
2022/06/04 06:39:04;;;;;;;24.60;11.35;;;23.70;99.90;;;;;;5056022;28;20086;-59
2022/06/04 06:41:30;;;;;;;18.92;10.10;;;23.80;99.90;;;;;;5055888;28;20033;-59
2022/06/04 06:43:56;;;;;;;26.85;10.35;;;24.00;99.90;;;;;;5058389;28;20052;-59
2022/06/04 06:46:30;;;;;;;16.73;10.30;;;24.00;99.90;;;;;;5021612;28;1237032;-60
2022/06/04 06:49:06;;;;;;;16.95;9.25;;;24.20;99.90;;;;;;5056520;28;20328;-59
2022/06/04 06:51:35;;;;;;;17.10;10.00;;;24.50;99.90;;;;;;5070392;28;20505;-60
2022/06/04 06:54:01;;;;;;;20.20;9.80;;;24.70;99.90;;;;;;5054116;28;20048;-60
2022/06/04 06:56:31;;;;;;;17.95;10.10;;;24.80;99.90;;;;;;5055498;28;20045;-59
2022/06/04 06:58:59;;;;;;;17.55;10.50;;;24.90;99.90;;;;;;5055635;28;20090;-59
2022/06/04 07:01:26;;;;;;;22.45;10.55;;;25.10;99.90;;;;;;5055332;28;20034;-59
2022/06/04 07:03:53;;;;;;;12.32;9.25;;;25.20;99.90;;;;;;5055565;28;20367;-59
2022/06/04 07:06:40;;;;;;;15.68;9.63;;;25.30;99.90;;;;;;5055514;28;20021;-59
2022/06/04 07:09:28;;;;;;;19.23;9.63;;;25.80;99.90;;;;;;5054616;28;20052;-60
2022/06/04 07:11:55;;;;;;;18.83;9.85;;;26.10;99.90;;;;;;5054682;28;20140;-60
2022/06/04 07:14:24;;;;;;;17.83;9.10;;;26.40;99.90;;;;;;5055409;28;20504;-59
2022/06/04 07:16:52;;;;;;;20.83;9.80;;;26.70;99.90;;;;;;5055250;28;20029;-59
2022/06/04 07:19:19;;;;;;;18.73;9.77;;;26.80;99.90;;;;;;5055138;28;20025;-59
2022/06/04 07:21:45;;;;;;;21.50;10.32;;;26.90;97.40;;;;;;5055417;28;20036;-59
2022/06/04 07:24:11;;;;;;;16.17;9.70;;;27.20;99.90;;;;;;5055181;28;20512;-60
2022/06/04 07:26:39;;;;;;;24.42;9.57;;;27.60;99.90;;;;;;5055055;28;20028;-59
2022/06/04 07:29:06;;;;;;;17.80;9.73;;;28.00;97.00;;;;;;5055033;28;20165;-59
2022/06/04 07:31:32;;;;;;;20.70;10.10;;;28.20;98.70;;;;;;5054794;28;20067;-59
2022/06/04 07:33:58;;;;;;;14.80;9.68;;;28.10;95.60;;;;;;5055222;28;20064;-59
2022/06/04 07:36:33;;;;;;;16.38;9.60;;;28.50;90.80;;;;;;5054987;28;20116;-59
2022/06/04 07:38:59;;;;;;;26.52;10.82;;;28.10;89.40;;;;;;5054797;28;20036;-59
2022/06/04 07:41:29;;;;;;;15.77;9.50;;;28.40;86.40;;;;;;5054923;28;20471;-59
2022/06/04 07:43:55;;;;;;;25.55;10.45;;;28.70;82.10;;;;;;5055010;28;20031;-59
2022/06/04 07:46:22;;;;;;;22.05;10.43;;;28.90;89.30;;;;;;5054869;28;20401;-59
2022/06/04 07:48:48;;;;;;;14.45;10.02;;;29.00;84.10;;;;;;5054574;28;20426;-59
2022/06/04 07:51:16;;;;;;;17.58;10.30;;;29.00;90.50;;;;;;5054781;28;20029;-57
2022/06/04 07:53:43;;;;;;;20.75;10.35;;;29.10;83.50;;;;;;5054484;28;20145;-58
2022/06/04 07:56:13;;;;;;;16.13;9.50;;;29.70;94.20;;;;;;5054645;28;20084;-58
2022/06/04 07:58:40;;;;;;;17.25;9.48;;;29.80;86.30;;;;;;5054791;28;20032;-58
2022/06/04 08:01:07;;;;;;;20.10;10.65;;;29.90;77.00;;;;;;5054266;28;20029;-58
2022/06/04 08:03:35;;;;;;;26.67;10.60;;;29.90;85.10;;;;;;5054513;28;20025;-58
2022/06/04 08:06:03;;;;;;;26.00;11.70;;;30.30;79.70;;;;;;5054651;28;20597;-58
2022/06/04 08:08:29;;;;;;;22.95;10.65;;;30.60;77.50;;;;;;5054250;28;20028;-58
2022/06/04 08:10:57;;;;;;;21.38;10.98;;;30.60;73.70;;;;;;5054352;28;20033;-58
2022/06/04 08:13:26;;;;;;;27.48;11.52;;;31.00;71.40;;;;;;5054483;28;20025;-58
2022/06/04 08:16:00;;;;;;;27.33;11.38;;;31.00;76.70;;;;;;5054335;28;20065;-58
2022/06/04 08:18:27;;;;;;;19.25;10.85;;;31.10;77.70;;;;;;5054016;28;20023;-58
2022/06/04 08:20:53;;;;;;;20.67;11.00;;;30.70;97.00;;;;;;5054620;28;20463;-58
2022/06/04 08:23:20;;;;;;;15.60;10.07;;;30.90;82.50;;;;;;5054240;28;20029;-58
2022/06/04 08:25:51;;;;;;;13.32;10.38;;;31.00;76.10;;;;;;5054408;28;20475;-58
2022/06/04 08:28:18;;;;;;;15.90;10.60;;;30.80;81.60;;;;;;5054204;28;20033;-58
2022/06/04 08:30:44;;;;;;;13.23;10.75;;;31.00;81.50;;;;;;5054060;28;20383;-58
2022/06/04 08:33:11;;;;;;;17.08;10.40;;;31.20;86.00;;;;;;5054375;28;20062;-58
2022/06/04 08:35:38;;;;;;;13.65;10.13;;;31.20;79.60;;;;;;5054075;28;20039;-58
2022/06/04 08:38:04;;;;;;;13.15;9.75;;;31.60;86.60;;;;;;5054096;28;20458;-58
2022/06/04 08:40:50;;;;;;;18.23;11.18;;;31.80;72.60;;;;;;5054427;28;20029;-58
2022/06/04 08:43:32;;;;;;;16.15;10.82;;;31.20;75.00;;;;;;5053885;28;20041;-58
2022/06/04 08:46:01;;;;;;;13.48;11.35;;;31.80;71.10;;;;;;5054252;28;20056;-58
2022/06/04 08:48:32;;;;;;;15.55;10.85;;;32.40;71.80;;;;;;5054145;28;20052;-58
2022/06/04 08:50:58;;;;;;;16.05;10.45;;;32.70;66.90;;;;;;5053884;28;20052;-58
2022/06/04 08:53:27;;;;;;;19.98;10.40;;;32.90;65.50;;;;;;5054232;28;20025;-58
2022/06/04 08:59:05;;;;;;;15.57;11.57;;;33.20;66.10;;;;;;5053849;28;20039;-58
2022/06/04 09:01:37;;;;;;;19.13;11.65;;;33.40;72.30;;;;;;5049932;28;20028;-58
2022/06/04 09:04:24;;;;;;;21.45;11.73;;;33.60;60.40;;;;;;5039523;28;20029;-58
2022/06/04 09:07:14;;;;;;;22.60;11.88;;;33.50;65.90;;;;;;5037111;28;20021;-58
2022/06/04 09:09:56;;;;;;;18.67;12.13;;;33.90;66.00;;;;;;5049882;28;20070;-58
2022/06/04 09:12:45;;;;;;;22.27;12.57;;;33.70;60.60;;;;;;5042077;28;20033;-58
2022/06/04 09:15:41;;;;;;;19.90;12.00;;;33.70;62.20;;;;;;5054738;28;20029;-58
2022/06/04 09:18:18;;;;;;;26.42;12.20;;;33.80;60.30;;;;;;5044018;28;20794;-58
2022/06/04 09:20:47;;;;;;;28.05;13.30;;;33.80;63.70;;;;;;5039034;28;20116;-58
2022/06/04 09:23:42;;;;;;;26.13;11.93;;;34.00;59.70;;;;;;5033767;28;20025;-58
2022/06/04 09:26:14;;;;;;;22.67;11.77;;;33.90;61.20;;;;;;5021120;28;20049;-58
2022/06/04 09:28:39;;;;;;;18.85;11.77;;;33.70;57.30;;;;;;5033914;28;20155;-57
2022/06/04 09:31:14;;;;;;;22.45;12.13;;;34.00;59.80;;;;;;5034769;28;20061;-58
2022/06/04 09:33:53;;;;;;;16.67;11.18;;;34.20;64.30;;;;;;5037383;28;20029;-58
2022/06/04 09:36:26;;;;;;;17.63;9.43;;;34.30;61.50;;;;;;5037281;28;20037;-58
2022/06/04 09:39:25;;;;;;;21.15;10.05;;;34.20;54.70;;;;;;5037672;28;20061;-58
2022/06/04 09:41:59;;;;;;;16.75;8.57;;;34.30;55.80;;;;;;5036610;28;20509;-57
2022/06/04 09:44:27;;;;;;;18.42;7.88;;;34.60;54.90;;;;;;5037322;28;20025;-58
2022/06/04 09:47:05;;;;;;;11.13;6.03;;;34.60;53.60;;;;;;5037051;28;20427;-58
2022/06/04 09:49:36;;;;;;;8.70;5.00;;;34.70;54.20;;;;;;5037046;28;20386;-58
2022/06/04 09:52:20;;;;;;;16.48;5.72;;;34.80;50.30;;;;;;5037005;28;20537;-57
2022/06/04 09:54:53;;;;;;;10.18;4.78;;;34.80;50.40;;;;;;5036666;28;20057;-57
2022/06/04 09:57:37;;;;;;;9.23;4.03;;;35.10;51.60;;;;;;5036955;28;20037;-57
2022/06/04 10:00:18;;;;;;;13.57;4.68;;;35.30;50.00;;;;;;5036870;28;20123;-57
2022/06/04 10:02:59;;;;;;;16.33;5.28;;;35.50;46.30;;;;;;5036756;28;20538;-58
2022/06/04 10:05:30;;;;;;;8.90;3.25;;;34.90;47.10;;;;;;5036885;28;20352;-57
2022/06/04 10:07:57;;;;;;;11.23;4.00;;;34.80;44.20;;;;;;5036573;28;20030;-57
2022/06/04 10:10:42;;;;;;;13.30;4.55;;;34.70;49.20;;;;;;5036532;28;20463;-57
2022/06/04 10:16:20;;;;;;;10.68;3.70;;;34.80;45.70;;;;;;5036421;28;20029;-57
2022/06/04 10:18:52;;;;;;;11.38;4.15;;;35.00;44.80;;;;;;5036417;28;20037;-57
2022/06/04 10:21:32;;;;;;;10.50;4.38;;;34.70;46.20;;;;;;5036335;28;20116;-57
2022/06/04 10:24:00;;;;;;;11.48;4.10;;;34.90;48.00;;;;;;5036450;28;20436;-57
2022/06/04 10:26:39;;;;;;;10.18;4.22;;;35.10;48.70;;;;;;5036516;28;20018;-57
2022/06/04 10:29:42;;;;;;;10.57;4.05;;;34.90;43.80;;;;;;5036026;28;20029;-57
2022/06/04 10:32:23;;;;;;;9.38;3.42;;;35.20;45.50;;;;;;5036363;28;20057;-57
2022/06/04 10:34:52;;;;;;;13.32;4.05;;;35.30;44.00;;;;;;5036335;28;20038;-57
2022/06/04 10:37:49;;;;;;;10.68;4.38;;;35.70;47.40;;;;;;5035984;28;20117;-57
2022/06/04 10:40:39;;;;;;;9.65;3.63;;;36.10;44.20;;;;;;5036199;28;20111;-57
2022/06/04 10:43:12;;;;;;;7.78;3.35;;;36.00;44.10;;;;;;5035541;28;20463;-57
2022/06/04 10:45:43;;;;;;;10.73;3.95;;;35.90;43.20;;;;;;5035970;28;20022;-57
2022/06/04 10:48:40;;;;;;;8.23;3.47;;;35.80;43.80;;;;;;5036058;28;20030;-56
2022/06/04 10:51:52;;;;;;;7.75;2.97;;;35.50;42.60;;;;;;5035731;28;20029;-57
2022/06/04 10:54:39;;;;;;;11.02;3.88;;;34.80;43.60;;;;;;4937218;29;20401;-57
2022/06/04 10:57:19;;;;;;;9.95;2.80;;;34.20;44.00;;;;;;4955293;29;20040;-57
2022/06/04 10:59:56;;;;;;;9.73;3.00;;;34.50;42.70;;;;;;4955275;29;20409;-57
2022/06/04 11:02:38;;;;;;;4.38;2.30;;;34.70;44.00;;;;;;4955249;29;20638;-57
2022/06/04 11:05:24;;;;;;;9.30;2.80;;;34.80;43.60;;;;;;4955077;29;20031;-57
2022/06/04 11:07:53;;;;;;;8.55;3.20;;;35.20;41.40;;;;;;4955062;29;20039;-57
2022/06/04 11:10:24;;;;;;;11.38;3.35;;;35.70;43.70;;;;;;4955143;29;20031;-57
2022/06/04 11:12:53;;;;;;;6.15;2.72;;;36.10;42.30;;;;;;4954935;29;20039;-57
2022/06/04 11:15:53;;;;;;;10.05;3.25;;;35.80;39.60;;;;;;4955203;29;20043;-57
2022/06/04 11:18:37;;;;;;;11.35;3.33;;;35.70;42.60;;;;;;4954800;29;20425;-57
2022/06/04 11:21:15;;;;;;;13.20;3.50;;;35.90;44.10;;;;;;4954905;29;20078;-57
2022/06/04 11:24:00;;;;;;;12.95;3.30;;;36.00;44.40;;;;;;4954849;29;20031;-57
2022/06/04 11:26:55;;;;;;;9.85;3.40;;;36.40;41.90;;;;;;4954921;29;20035;-57
2022/06/04 11:29:21;;;;;;;9.80;3.55;;;36.60;41.60;;;;;;5029935;28;20044;-57
2022/06/04 11:32:07;;;;;;;10.23;3.42;;;36.60;44.60;;;;;;5035244;28;20120;-57
2022/06/04 11:35:02;;;;;;;17.02;2.90;;;36.70;42.70;;;;;;5035184;28;20037;-57
2022/06/04 11:37:59;;;;;;;7.00;2.88;;;36.50;44.70;;;;;;5033220;28;20399;-57
2022/06/04 11:40:39;;;;;;;42.30;8.43;;;36.50;41.80;;;;;;5035139;28;20037;-57
2022/06/04 11:43:20;;;;;;;8.88;3.33;;;36.40;41.90;;;;;;5034878;28;20546;-57
2022/06/04 11:46:04;;;;;;;12.43;2.72;;;36.60;41.90;;;;;;5035108;28;20033;-57
2022/06/04 11:48:55;;;;;;;13.25;3.53;;;36.40;42.40;;;;;;5034699;28;20494;-56
2022/06/04 11:51:50;;;;;;;20.08;4.60;;;36.00;40.40;;;;;;5034924;28;20068;-57
2022/06/04 11:54:28;;;;;;;9.57;3.75;;;36.10;41.00;;;;;;5030143;28;20041;-56
2022/06/04 11:57:31;;;;;;;7.65;3.03;;;36.10;41.00;;;;;;5034710;28;20087;-56
2022/06/04 12:00:20;;;;;;;11.88;4.00;;;35.80;40.70;;;;;;5034839;28;20495;-56
2022/06/04 12:03:08;;;;;;;14.85;3.22;;;35.90;41.60;;;;;;5034420;28;20120;-56
2022/06/04 12:05:40;;;;;;;10.13;2.80;;;36.00;42.70;;;;;;5034586;28;20025;-56
2022/06/04 12:08:10;;;;;;;11.40;3.35;;;35.70;43.10;;;;;;5034508;28;20053;-56
2022/06/04 12:11:01;;;;;;;8.52;3.35;;;35.70;42.90;;;;;;5034412;28;20109;-56
2022/06/04 12:13:36;;;;;;;11.98;3.60;;;35.60;42.10;;;;;;5034627;28;20041;-56
2022/06/04 12:16:24;;;;;;;12.32;3.33;;;35.40;43.60;;;;;;5034447;28;20073;-56
2022/06/04 12:25:10;;;;;;;7.72;3.35;;;36.30;44.40;;;;;;5034296;28;20029;-56
2022/06/04 12:27:52;;;;;;;12.63;4.70;;;36.50;42.20;;;;;;5034476;28;20030;-56
2022/06/04 12:30:30;;;;;;;18.63;4.70;;;36.30;42.90;;;;;;5034159;28;20468;-56
2022/06/04 12:32:56;;;;;;;10.30;4.05;;;36.40;42.80;;;;;;5034607;28;20099;-57
2022/06/04 12:35:24;;;;;;;9.70;3.03;;;36.10;42.30;;;;;;5034317;28;20156;-56
2022/06/04 12:37:58;;;;;;;9.73;3.75;;;36.40;42.70;;;;;;5034165;28;20512;-56
2022/06/04 12:40:24;;;;;;;16.60;4.40;;;36.70;42.30;;;;;;5034324;28;20108;-56
2022/06/04 12:43:19;;;;;;;12.27;3.55;;;36.60;41.30;;;;;;5034191;28;20195;-56
2022/06/04 12:45:49;;;;;;;16.33;4.68;;;35.70;42.60;;;;;;5017162;28;20056;-56
2022/06/04 12:48:27;;;;;;;8.40;3.63;;;36.30;44.60;;;;;;5034146;28;20379;-56
2022/06/04 12:51:18;;;;;;;15.02;4.55;;;36.30;41.80;;;;;;5033958;28;20038;-56
2022/06/04 12:54:02;;;;;;;7.53;3.60;;;36.30;42.10;;;;;;5034019;28;20028;-57
2022/06/04 12:56:33;;;;;;;10.90;3.45;;;35.70;43.00;;;;;;5034084;28;20049;-57
2022/06/04 12:59:03;;;;;;;11.07;3.10;;;35.90;44.80;;;;;;5034074;28;20359;-57
2022/06/04 13:01:29;;;;;;;9.20;3.47;;;36.10;43.00;;;;;;5033793;28;20093;-57
2022/06/04 13:04:20;;;;;;;8.38;2.78;;;36.10;44.90;;;;;;5034178;28;20117;-57
2022/06/04 13:06:51;;;;;;;14.38;4.13;;;36.20;44.40;;;;;;5036017;28;20032;-57
2022/06/04 13:09:47;;;;;;;10.52;3.72;;;36.00;43.70;;;;;;5037804;28;20029;-57
2022/06/04 13:12:41;;;;;;;14.80;4.82;;;35.50;43.30;;;;;;5037899;28;20033;-57
2022/06/04 13:15:13;;;;;;;14.57;4.07;;;35.50;43.10;;;;;;5037678;28;20033;-57
2022/06/04 13:17:44;;;;;;;12.40;3.72;;;35.40;47.00;;;;;;5037631;28;20041;-57
2022/06/04 13:20:13;;;;;;;11.05;4.03;;;35.40;44.60;;;;;;5037627;28;20501;-57
2022/06/04 13:22:51;;;;;;;9.57;3.85;;;34.80;45.80;;;;;;5037563;28;20147;-57
2022/06/04 13:25:38;;;;;;;10.70;4.50;;;34.80;46.80;;;;;;5037712;28;20494;-57